Kelham Island, United Kingdom
Current Conditions -  °F | °C
As of 11:50 PM on Friday 21 Nov 2014 (Local Time) from EGCN Reporting Station
Light Rain Light Rain  
Wind Chill: 45°   Ceiling: 700
Heat Index: 48°   Visibility: 2.5mi
Dew Point: 46°   Wind: 8mph
Humidity: 93%   Direction: 130°SE
Pressure: 29.91"   Gusts: NA
Location:  53.38°N, 1.47°W
Report Text: EGCN 212350Z 13007KT 4000 -RADZ BKN007 09/08 Q1013
Loading
Personal Weather Stations






























Interactive Weather Map New forecast layout! Learn more

10-Day Weather Forecast

Advertisements
Track Severe Weather on mobile